Challenge Peak — 9V9589 — position and weather

sailwx.info

Track history (hours):
 
Tides and Currents Weather Stations Pressure Air Temp Water Temp Dewpoint Dewpoint Depression Visibility Wind Speed Wind Dir Waves Ship Positions

Challenge Peak

Last reported at 2018-Feb-21 06:01 UTC. Time now 2018-Feb-23 00:09 UTC.
Position N 20°06' E 070°04'.

Length 182 m; draft 11.5 m.

Type: Tanker. MMSI: 566433000.

Date/timePositionNaut miles runAvg speedWind from/ knotsBaromVisibWave heightAir tempDewpointWater temp
2018-Feb-21 06:01N 20°06' E 070°04'010.4
2018-Feb-21 06:00N 20°07' E 070°04'510.2
2018-Feb-21 05:30N 20°11' E 070°01'  
2018-Feb-17 20:46N 20°15' E 069°59'615.1
2018-Feb-17 20:24N 20°10' E 070°03'815.1
2018-Feb-17 19:52N 20°04' E 070°08'715.1
2018-Feb-17 19:24N 19°58' E 070°13'3715.4
2018-Feb-17 17:01N 19°28' E 070°35'015.7
2018-Feb-17 16:59N 19°28' E 070°36'14515.4
2018-Feb-17 07:33N 17°27' E 071°60'215.0
2018-Feb-17 07:25N 17°25' E 072°01'1515.3
2018-Feb-17 06:26N 17°13' E 072°10'715.2
2018-Feb-17 06:00N 17°07' E 072°13'815.2
2018-Feb-17 05:29N 17°01' E 072°18'715.2
2018-Feb-17 05:00N 16°55' E 072°22'815.1
2018-Feb-17 04:30N 16°48' E 072°27'815.1
2018-Feb-17 04:00N 16°42' E 072°31'815.2
2018-Feb-17 03:30N 16°35' E 072°35'815.0
2018-Feb-17 02:57N 16°28' E 072°39'715.5
2018-Feb-17 02:30N 16°21' E 072°41'815.7
2018-Feb-17 01:59N 16°13' E 072°44'2316.2
2018-Feb-17 00:35N 15°53' E 072°52'316.0
2018-Feb-17 00:26N 15°50' E 072°53'  
Track history (hours):
 
Tides and Currents Weather Stations Pressure Air Temp Water Temp Dewpoint Dewpoint Depression Visibility Wind Speed Wind Dir Waves Ship Positions

Challenge Peak

Last reported at 2018-Feb-21 06:01 UTC. Time now 2018-Feb-23 00:09 UTC.
Position N 20°06' E 070°04'.

Length 182 m; draft 11.5 m.

Type: Tanker. MMSI: 566433000.

Date/timePositionNaut miles runAvg speedWind from/ knotsBaromVisibWave heightAir tempDewpointWater temp
2018-Feb-21 06:01N 20°06' E 070°04'010.4
2018-Feb-21 06:00N 20°07' E 070°04'510.2
2018-Feb-21 05:30N 20°11' E 070°01'  
2018-Feb-17 20:46N 20°15' E 069°59'615.1
2018-Feb-17 20:24N 20°10' E 070°03'815.1
2018-Feb-17 19:52N 20°04' E 070°08'715.1
2018-Feb-17 19:24N 19°58' E 070°13'3715.4
2018-Feb-17 17:01N 19°28' E 070°35'015.7
2018-Feb-17 16:59N 19°28' E 070°36'14515.4
2018-Feb-17 07:33N 17°27' E 071°60'215.0
2018-Feb-17 07:25N 17°25' E 072°01'1515.3
2018-Feb-17 06:26N 17°13' E 072°10'715.2
2018-Feb-17 06:00N 17°07' E 072°13'815.2
2018-Feb-17 05:29N 17°01' E 072°18'715.2
2018-Feb-17 05:00N 16°55' E 072°22'815.1
2018-Feb-17 04:30N 16°48' E 072°27'815.1
2018-Feb-17 04:00N 16°42' E 072°31'815.2
2018-Feb-17 03:30N 16°35' E 072°35'815.0
2018-Feb-17 02:57N 16°28' E 072°39'715.5
2018-Feb-17 02:30N 16°21' E 072°41'815.7
2018-Feb-17 01:59N 16°13' E 072°44'2316.2
2018-Feb-17 00:35N 15°53' E 072°52'316.0
2018-Feb-17 00:26N 15°50' E 072°53'  

Dump ship's entire track history